sensor_id;sensor_type;location;lat;lon;timestamp;pressure;altitude;pressure_sealevel;temperature;humidity
50123;BME280;36021;48.670;6.184;2022-12-18T00:01:00;99998.88;;;-3.82;100.00
50123;BME280;36021;48.670;6.184;2022-12-18T00:03:26;100000.47;;;-3.96;100.00
50123;BME280;36021;48.670;6.184;2022-12-18T00:05:52;100004.31;;;-3.90;100.00
50123;BME280;36021;48.670;6.184;2022-12-18T00:08:19;100008.50;;;-3.88;100.00
50123;BME280;36021;48.670;6.184;2022-12-18T00:10:45;100003.84;;;-3.94;100.00
50123;BME280;36021;48.670;6.184;2022-12-18T00:13:12;99999.94;;;-3.91;100.00
50123;BME280;36021;48.670;6.184;2022-12-18T00:15:39;99992.19;;;-3.86;100.00
50123;BME280;36021;48.670;6.184;2022-12-18T00:18:05;99984.75;;;-3.84;100.00
50123;BME280;36021;48.670;6.184;2022-12-18T00:20:38;99991.84;;;-3.83;100.00
50123;BME280;36021;48.670;6.184;2022-12-18T00:23:06;99995.47;;;-3.76;100.00
50123;BME280;36021;48.670;6.184;2022-12-18T00:25:34;99983.06;;;-3.85;100.00
50123;BME280;36021;48.670;6.184;2022-12-18T00:28:00;99991.34;;;-3.87;100.00
50123;BME280;36021;48.670;6.184;2022-12-18T00:30:26;99997.38;;;-3.85;100.00
50123;BME280;36021;48.670;6.184;2022-12-18T00:32:52;99995.47;;;-3.76;100.00
50123;BME280;36021;48.670;6.184;2022-12-18T00:35:18;99994.94;;;-3.72;100.00
50123;BME280;36021;48.670;6.184;2022-12-18T00:37:43;99993.97;;;-3.79;100.00
50123;BME280;36021;48.670;6.184;2022-12-18T00:40:11;99998.81;;;-3.74;100.00
50123;BME280;36021;48.670;6.184;2022-12-18T00:42:37;100005.78;;;-3.80;100.00
50123;BME280;36021;48.670;6.184;2022-12-18T00:45:24;100005.19;;;-3.67;100.00
50123;BME280;36021;48.670;6.184;2022-12-18T00:47:50;100007.78;;;-3.82;100.00
50123;BME280;36021;48.670;6.184;2022-12-18T00:50:16;100008.28;;;-3.78;100.00
50123;BME280;36021;48.670;6.184;2022-12-18T00:52:42;100013.28;;;-3.75;100.00
50123;BME280;36021;48.670;6.184;2022-12-18T00:55:08;99994.28;;;-3.74;100.00
50123;BME280;36021;48.670;6.184;2022-12-18T00:57:35;100001.56;;;-3.82;100.00
50123;BME280;36021;48.670;6.184;2022-12-18T01:00:02;100002.53;;;-3.75;100.00
50123;BME280;36021;48.670;6.184;2022-12-18T01:02:28;99999.78;;;-3.67;100.00
50123;BME280;36021;48.670;6.184;2022-12-18T01:04:53;100000.16;;;-3.70;100.00
50123;BME280;36021;48.670;6.184;2022-12-18T01:07:19;99998.06;;;-3.60;100.00
50123;BME280;36021;48.670;6.184;2022-12-18T01:09:45;100003.25;;;-3.81;100.00
50123;BME280;36021;48.670;6.184;2022-12-18T01:12:10;99998.47;;;-3.71;100.00
50123;BME280;36021;48.670;6.184;2022-12-18T01:14:36;100001.28;;;-3.87;100.00
50123;BME280;36021;48.670;6.184;2022-12-18T01:17:03;99998.94;;;-3.90;100.00
50123;BME280;36021;48.670;6.184;2022-12-18T01:19:32;99996.91;;;-3.88;100.00
50123;BME280;36021;48.670;6.184;2022-12-18T01:21:58;100003.78;;;-3.63;100.00
50123;BME280;36021;48.670;6.184;2022-12-18T01:24:26;100003.28;;;-3.89;100.00
50123;BME280;36021;48.670;6.184;2022-12-18T01:26:51;100003.91;;;-3.79;100.00
50123;BME280;36021;48.670;6.184;2022-12-18T01:29:17;100001.56;;;-3.82;100.00
50123;BME280;36021;48.670;6.184;2022-12-18T01:31:43;100009.47;;;-3.81;100.00
50123;BME280;36021;48.670;6.184;2022-12-18T01:34:09;100018.53;;;-3.74;100.00
50123;BME280;36021;48.670;6.184;2022-12-18T01:36:37;100012.44;;;-3.76;100.00
50123;BME280;36021;48.670;6.184;2022-12-18T01:39:10;100013.91;;;-3.65;100.00
50123;BME280;36021;48.670;6.184;2022-12-18T01:41:36;100017.59;;;-3.66;100.00
50123;BME280;36021;48.670;6.184;2022-12-18T01:52:34;100030.88;;;-3.87;100.00
50123;BME280;36021;48.670;6.184;2022-12-18T01:55:06;100032.56;;;-3.86;100.00
50123;BME280;36021;48.670;6.184;2022-12-18T01:57:32;100029.69;;;-4.15;100.00
50123;BME280;36021;48.670;6.184;2022-12-18T02:00:03;100044.59;;;-4.05;100.00
50123;BME280;36021;48.670;6.184;2022-12-18T02:02:39;100035.28;;;-3.94;100.00
50123;BME280;36021;48.670;6.184;2022-12-18T02:05:06;100036.13;;;-3.94;100.00
50123;BME280;36021;48.670;6.184;2022-12-18T02:10:25;100029.88;;;-3.86;100.00
50123;BME280;36021;48.670;6.184;2022-12-18T02:15:55;100038.63;;;-4.70;100.00
50123;BME280;36021;48.670;6.184;2022-12-18T02:18:32;100048.75;;;-4.72;100.00
50123;BME280;36021;48.670;6.184;2022-12-18T02:26:27;100051.31;;;-4.40;100.00
50123;BME280;36021;48.670;6.184;2022-12-18T02:30:01;100041.47;;;-4.16;100.00
50123;BME280;36021;48.670;6.184;2022-12-18T02:32:15;100040.16;;;-4.29;100.00
50123;BME280;36021;48.670;6.184;2022-12-18T02:34:43;100043.47;;;-4.18;100.00
50123;BME280;36021;48.670;6.184;2022-12-18T02:37:16;100039.44;;;-4.14;100.00
50123;BME280;36021;48.670;6.184;2022-12-18T02:39:47;100038.56;;;-4.07;100.00
50123;BME280;36021;48.670;6.184;2022-12-18T02:42:16;100029.66;;;-4.07;100.00
50123;BME280;36021;48.670;6.184;2022-12-18T02:44:44;100045.44;;;-4.04;100.00
50123;BME280;36021;48.670;6.184;2022-12-18T02:47:15;100035.66;;;-3.97;100.00
50123;BME280;36021;48.670;6.184;2022-12-18T02:58:20;100052.03;;;-4.46;100.00
50123;BME280;36021;48.670;6.184;2022-12-18T03:01:02;100047.91;;;-4.72;100.00
50123;BME280;36021;48.670;6.184;2022-12-18T03:03:40;100053.44;;;-4.74;100.00
50123;BME280;36021;48.670;6.184;2022-12-18T03:06:41;100059.81;;;-4.67;100.00
50123;BME280;36021;48.670;6.184;2022-12-18T03:09:11;100051.03;;;-4.53;100.00
50123;BME280;36021;48.670;6.184;2022-12-18T03:11:41;100058.03;;;-4.36;100.00
50123;BME280;36021;48.670;6.184;2022-12-18T03:14:29;100066.81;;;-4.58;100.00
50123;BME280;36021;48.670;6.184;2022-12-18T03:16:57;100066.53;;;-4.71;100.00
50123;BME280;36021;48.670;6.184;2022-12-18T03:19:28;100062.19;;;-4.72;100.00
50123;BME280;36021;48.670;6.184;2022-12-18T03:21:58;100068.59;;;-4.81;100.00
50123;BME280;36021;48.670;6.184;2022-12-18T03:24:31;100063.22;;;-4.81;100.00
50123;BME280;36021;48.670;6.184;2022-12-18T03:27:01;100061.22;;;-5.03;100.00
50123;BME280;36021;48.670;6.184;2022-12-18T03:29:35;100067.78;;;-5.22;100.00
50123;BME280;36021;48.670;6.184;2022-12-18T03:32:06;100066.59;;;-5.19;100.00
50123;BME280;36021;48.670;6.184;2022-12-18T03:34:35;100076.34;;;-5.18;100.00
50123;BME280;36021;48.670;6.184;2022-12-18T03:37:06;100075.66;;;-5.12;100.00
50123;BME280;36021;48.670;6.184;2022-12-18T03:39:34;100089.13;;;-5.20;100.00
50123;BME280;36021;48.670;6.184;2022-12-18T03:47:31;100087.72;;;-5.00;100.00
50123;BME280;36021;48.670;6.184;2022-12-18T03:50:20;100075.81;;;-4.90;100.00
50123;BME280;36021;48.670;6.184;2022-12-18T03:55:22;100073.44;;;-4.68;100.00
50123;BME280;36021;48.670;6.184;2022-12-18T03:57:57;100073.31;;;-4.91;100.00
50123;BME280;36021;48.670;6.184;2022-12-18T04:00:30;100068.75;;;-4.83;100.00
50123;BME280;36021;48.670;6.184;2022-12-18T04:03:05;100069.59;;;-4.82;100.00
50123;BME280;36021;48.670;6.184;2022-12-18T04:05:42;100068.75;;;-4.75;100.00
50123;BME280;36021;48.670;6.184;2022-12-18T04:08:08;100065.13;;;-4.51;100.00
50123;BME280;36021;48.670;6.184;2022-12-18T04:10:38;100059.16;;;-4.77;100.00
50123;BME280;36021;48.670;6.184;2022-12-18T04:13:04;100052.56;;;-4.66;100.00
50123;BME280;36021;48.670;6.184;2022-12-18T04:15:32;100049.59;;;-4.71;100.00
50123;BME280;36021;48.670;6.184;2022-12-18T04:18:00;100053.41;;;-4.66;100.00
50123;BME280;36021;48.670;6.184;2022-12-18T04:20:32;100044.97;;;-4.47;100.00
50123;BME280;36021;48.670;6.184;2022-12-18T04:22:58;100052.66;;;-4.36;100.00
50123;BME280;36021;48.670;6.184;2022-12-18T04:25:23;100057.75;;;-4.49;100.00
50123;BME280;36021;48.670;6.184;2022-12-18T04:27:59;100041.75;;;-4.42;100.00
50123;BME280;36021;48.670;6.184;2022-12-18T04:30:25;100039.56;;;-4.47;100.00
50123;BME280;36021;48.670;6.184;2022-12-18T04:32:51;100042.75;;;-4.43;100.00
50123;BME280;36021;48.670;6.184;2022-12-18T04:35:16;100040.22;;;-4.37;100.00
50123;BME280;36021;48.670;6.184;2022-12-18T04:37:43;100025.97;;;-4.45;100.00
50123;BME280;36021;48.670;6.184;2022-12-18T04:40:10;100038.19;;;-4.35;100.00
50123;BME280;36021;48.670;6.184;2022-12-18T04:42:40;100036.13;;;-4.25;100.00
50123;BME280;36021;48.670;6.184;2022-12-18T04:45:07;100037.75;;;-4.15;100.00
50123;BME280;36021;48.670;6.184;2022-12-18T04:47:33;100033.84;;;-4.36;100.00
50123;BME280;36021;48.670;6.184;2022-12-18T04:49:59;100037.88;;;-4.40;100.00
50123;BME280;36021;48.670;6.184;2022-12-18T04:52:24;100039.50;;;-4.31;100.00
50123;BME280;36021;48.670;6.184;2022-12-18T04:54:50;100037.53;;;-4.37;100.00
50123;BME280;36021;48.670;6.184;2022-12-18T04:57:16;100046.09;;;-4.88;100.00
50123;BME280;36021;48.670;6.184;2022-12-18T04:59:44;100044.41;;;-4.89;100.00
50123;BME280;36021;48.670;6.184;2022-12-18T05:02:10;100043.72;;;-4.83;100.00
50123;BME280;36021;48.670;6.184;2022-12-18T05:04:36;100048.13;;;-5.14;100.00
50123;BME280;36021;48.670;6.184;2022-12-18T05:07:01;100064.94;;;-5.20;100.00
50123;BME280;36021;48.670;6.184;2022-12-18T05:09:27;100061.25;;;-5.44;100.00
50123;BME280;36021;48.670;6.184;2022-12-18T05:11:53;100063.56;;;-5.33;100.00
50123;BME280;36021;48.670;6.184;2022-12-18T05:14:19;100073.00;;;-5.37;100.00
50123;BME280;36021;48.670;6.184;2022-12-18T05:16:45;100069.28;;;-5.36;100.00
50123;BME280;36021;48.670;6.184;2022-12-18T05:19:10;100075.13;;;-5.64;100.00
50123;BME280;36021;48.670;6.184;2022-12-18T05:21:37;100077.78;;;-5.72;100.00
50123;BME280;36021;48.670;6.184;2022-12-18T05:24:03;100075.13;;;-5.64;100.00
50123;BME280;36021;48.670;6.184;2022-12-18T05:26:29;100084.19;;;-5.49;100.00
50123;BME280;36021;48.670;6.184;2022-12-18T05:28:55;100076.81;;;-5.55;100.00
50123;BME280;36021;48.670;6.184;2022-12-18T05:31:21;100088.25;;;-5.37;100.00
50123;BME280;36021;48.670;6.184;2022-12-18T05:33:49;100090.09;;;-5.21;100.00
50123;BME280;36021;48.670;6.184;2022-12-18T05:36:15;100090.44;;;-5.16;100.00
50123;BME280;36021;48.670;6.184;2022-12-18T05:38:41;100077.84;;;-5.08;100.00
50123;BME280;36021;48.670;6.184;2022-12-18T05:41:08;100086.06;;;-5.09;100.00
50123;BME280;36021;48.670;6.184;2022-12-18T05:43:38;100085.06;;;-5.00;100.00
50123;BME280;36021;48.670;6.184;2022-12-18T05:46:11;100076.66;;;-4.89;100.00
50123;BME280;36021;48.670;6.184;2022-12-18T05:48:37;100079.50;;;-4.91;100.00
50123;BME280;36021;48.670;6.184;2022-12-18T05:51:19;100084.34;;;-4.70;100.00
50123;BME280;36021;48.670;6.184;2022-12-18T05:53:45;100084.19;;;-4.68;100.00
50123;BME280;36021;48.670;6.184;2022-12-18T05:56:15;100084.50;;;-4.63;100.00
50123;BME280;36021;48.670;6.184;2022-12-18T05:58:41;100083.00;;;-4.66;100.00
50123;BME280;36021;48.670;6.184;2022-12-18T06:01:27;100078.47;;;-4.65;100.00
50123;BME280;36021;48.670;6.184;2022-12-18T06:03:53;100083.00;;;-4.66;100.00
50123;BME280;36021;48.670;6.184;2022-12-18T06:06:22;100083.66;;;-4.56;100.00
50123;BME280;36021;48.670;6.184;2022-12-18T06:08:50;100091.00;;;-4.42;100.00
50123;BME280;36021;48.670;6.184;2022-12-18T06:11:18;100100.03;;;-4.35;100.00
50123;BME280;36021;48.670;6.184;2022-12-18T06:13:45;100112.69;;;-4.35;100.00
50123;BME280;36021;48.670;6.184;2022-12-18T06:16:10;100106.41;;;-4.28;100.00
50123;BME280;36021;48.670;6.184;2022-12-18T06:18:36;100098.03;;;-4.33;100.00
50123;BME280;36021;48.670;6.184;2022-12-18T06:21:02;100105.91;;;-4.31;100.00
50123;BME280;36021;48.670;6.184;2022-12-18T06:23:28;100109.19;;;-4.60;100.00
50123;BME280;36021;48.670;6.184;2022-12-18T06:25:54;100113.88;;;-4.54;100.00
50123;BME280;36021;48.670;6.184;2022-12-18T06:28:19;100127.13;;;-4.44;100.00
50123;BME280;36021;48.670;6.184;2022-12-18T06:30:46;100124.28;;;-4.43;100.00
50123;BME280;36021;48.670;6.184;2022-12-18T06:33:14;100135.81;;;-4.18;100.00
50123;BME280;36021;48.670;6.184;2022-12-18T06:35:40;100136.50;;;-4.24;100.00
50123;BME280;36021;48.670;6.184;2022-12-18T06:38:06;100126.09;;;-4.27;100.00
50123;BME280;36021;48.670;6.184;2022-12-18T06:40:31;100124.13;;;-4.57;100.00
50123;BME280;36021;48.670;6.184;2022-12-18T06:42:57;100128.81;;;-4.35;100.00
50123;BME280;36021;48.670;6.184;2022-12-18T06:45:23;100128.94;;;-4.29;100.00
50123;BME280;36021;48.670;6.184;2022-12-18T06:47:50;100133.50;;;-4.37;100.00
50123;BME280;36021;48.670;6.184;2022-12-18T06:50:15;100136.34;;;-4.31;100.00
50123;BME280;36021;48.670;6.184;2022-12-18T06:52:42;100139.09;;;-4.39;100.00
50123;BME280;36021;48.670;6.184;2022-12-18T06:55:10;100134.34;;;-4.37;100.00
50123;BME280;36021;48.670;6.184;2022-12-18T06:57:36;100127.28;;;-4.38;100.00
50123;BME280;36021;48.670;6.184;2022-12-18T07:00:05;100127.13;;;-4.36;100.00
50123;BME280;36021;48.670;6.184;2022-12-18T07:02:31;100132.03;;;-4.48;100.00
50123;BME280;36021;48.670;6.184;2022-12-18T07:04:57;100131.38;;;-4.42;100.00
50123;BME280;36021;48.670;6.184;2022-12-18T07:07:22;100125.97;;;-4.42;100.00
50123;BME280;36021;48.670;6.184;2022-12-18T07:09:51;100121.94;;;-4.46;100.00
50123;BME280;36021;48.670;6.184;2022-12-18T07:12:17;100120.25;;;-4.47;100.00
50123;BME280;36021;48.670;6.184;2022-12-18T07:14:43;100119.75;;;-4.50;100.00
50123;BME280;36021;48.670;6.184;2022-12-18T07:17:09;100126.31;;;-4.53;100.00
50123;BME280;36021;48.670;6.184;2022-12-18T07:19:35;100126.69;;;-4.56;100.00
50123;BME280;36021;48.670;6.184;2022-12-18T07:22:01;100137.75;;;-4.43;100.00
50123;BME280;36021;48.670;6.184;2022-12-18T07:24:27;100127.69;;;-4.49;100.00
50123;BME280;36021;48.670;6.184;2022-12-18T07:26:53;100119.94;;;-4.60;100.00
50123;BME280;36021;48.670;6.184;2022-12-18T07:29:19;100119.25;;;-4.54;100.00
50123;BME280;36021;48.670;6.184;2022-12-18T07:31:45;100115.06;;;-4.56;100.00
50123;BME280;36021;48.670;6.184;2022-12-18T07:34:12;100118.25;;;-4.53;100.00
50123;BME280;36021;48.670;6.184;2022-12-18T07:36:38;100117.41;;;-4.53;100.00
50123;BME280;36021;48.670;6.184;2022-12-18T07:39:04;100112.22;;;-4.55;100.00
50123;BME280;36021;48.670;6.184;2022-12-18T07:41:30;100116.25;;;-4.59;100.00
50123;BME280;36021;48.670;6.184;2022-12-18T07:44:02;100109.00;;;-4.50;100.00
50123;BME280;36021;48.670;6.184;2022-12-18T07:46:28;100112.22;;;-4.55;100.00
50123;BME280;36021;48.670;6.184;2022-12-18T07:48:54;100114.53;;;-4.44;100.00
50123;BME280;36021;48.670;6.184;2022-12-18T07:51:20;100111.50;;;-4.41;100.00
50123;BME280;36021;48.670;6.184;2022-12-18T07:53:46;100122.59;;;-4.44;100.00
50123;BME280;36021;48.670;6.184;2022-12-18T07:56:12;100115.03;;;-4.40;100.00
50123;BME280;36021;48.670;6.184;2022-12-18T07:58:39;100119.41;;;-4.39;100.00
50123;BME280;36021;48.670;6.184;2022-12-18T08:01:05;100124.59;;;-4.38;100.00
50123;BME280;36021;48.670;6.184;2022-12-18T08:03:31;100131.06;;;-4.55;100.00
50123;BME280;36021;48.670;6.184;2022-12-18T08:06:00;100122.28;;;-4.49;100.00
50123;BME280;36021;48.670;6.184;2022-12-18T08:08:27;100132.56;;;-4.52;100.00
50123;BME280;36021;48.670;6.184;2022-12-18T08:10:53;100120.94;;;-4.53;100.00
50123;BME280;36021;48.670;6.184;2022-12-18T08:13:18;100117.59;;;-4.55;100.00
50123;BME280;36021;48.670;6.184;2022-12-18T08:15:44;100115.44;;;-4.76;100.00
50123;BME280;36021;48.670;6.184;2022-12-18T08:18:10;100122.31;;;-4.73;100.00
50123;BME280;36021;48.670;6.184;2022-12-18T08:20:36;100113.91;;;-4.70;100.00
50123;BME280;36021;48.670;6.184;2022-12-18T08:23:01;100124.00;;;-4.80;100.00
50123;BME280;36021;48.670;6.184;2022-12-18T08:25:27;100134.06;;;-4.74;100.00
50123;BME280;36021;48.670;6.184;2022-12-18T08:27:53;100119.97;;;-4.76;100.00
50123;BME280;36021;48.670;6.184;2022-12-18T08:30:19;100124.34;;;-4.83;100.00
50123;BME280;36021;48.670;6.184;2022-12-18T08:32:45;100121.34;;;-5.04;100.00
50123;BME280;36021;48.670;6.184;2022-12-18T08:35:11;100115.28;;;-4.82;100.00
50123;BME280;36021;48.670;6.184;2022-12-18T08:37:37;100114.97;;;-5.11;100.00
50123;BME280;36021;48.670;6.184;2022-12-18T08:40:03;100117.63;;;-5.03;100.00
50123;BME280;36021;48.670;6.184;2022-12-18T08:42:29;100126.19;;;-5.16;100.00
50123;BME280;36021;48.670;6.184;2022-12-18T08:45:13;100124.34;;;-4.99;100.00
50123;BME280;36021;48.670;6.184;2022-12-18T08:47:39;100126.72;;;-4.88;100.00
50123;BME280;36021;48.670;6.184;2022-12-18T08:50:05;100123.69;;;-4.85;100.00
50123;BME280;36021;48.670;6.184;2022-12-18T08:52:32;100107.53;;;-4.77;100.00
50123;BME280;36021;48.670;6.184;2022-12-18T08:55:00;100105.69;;;-4.68;100.00
50123;BME280;36021;48.670;6.184;2022-12-18T08:57:26;100110.91;;;-4.75;100.00
50123;BME280;36021;48.670;6.184;2022-12-18T08:59:52;100101.47;;;-4.63;100.00
50123;BME280;36021;48.670;6.184;2022-12-18T09:02:17;100105.84;;;-4.62;100.00
50123;BME280;36021;48.670;6.184;2022-12-18T09:04:46;100117.22;;;-4.44;100.00
50123;BME280;36021;48.670;6.184;2022-12-18T09:07:12;100112.38;;;-4.48;100.00
50123;BME280;36021;48.670;6.184;2022-12-18T09:09:38;100109.50;;;-4.47;100.00
50123;BME280;36021;48.670;6.184;2022-12-18T09:12:03;100124.94;;;-4.41;100.00
50123;BME280;36021;48.670;6.184;2022-12-18T09:14:29;100120.44;;;-4.56;100.00
50123;BME280;36021;48.670;6.184;2022-12-18T09:16:55;100129.00;;;-4.61;100.00
50123;BME280;36021;48.670;6.184;2022-12-18T09:19:20;100132.91;;;-4.55;100.00
50123;BME280;36021;48.670;6.184;2022-12-18T09:21:46;100130.22;;;-4.55;100.00
50123;BME280;36021;48.670;6.184;2022-12-18T09:24:15;100131.72;;;-4.53;100.00
50123;BME280;36021;48.670;6.184;2022-12-18T09:26:41;100120.28;;;-4.55;100.00
50123;BME280;36021;48.670;6.184;2022-12-18T09:29:07;100120.28;;;-4.63;100.00
50123;BME280;36021;48.670;6.184;2022-12-18T09:31:38;100123.97;;;-4.64;100.00
50123;BME280;36021;48.670;6.184;2022-12-18T09:34:05;100118.94;;;-4.59;100.00
50123;BME280;36021;48.670;6.184;2022-12-18T09:36:31;100120.44;;;-4.64;100.00
50123;BME280;36021;48.670;6.184;2022-12-18T09:38:57;100123.97;;;-4.64;100.00
50123;BME280;36021;48.670;6.184;2022-12-18T09:43:51;100123.63;;;-4.61;100.00
50123;BME280;36021;48.670;6.184;2022-12-18T09:46:25;100128.50;;;-4.48;100.00
50123;BME280;36021;48.670;6.184;2022-12-18T09:48:54;100130.69;;;-4.44;100.00
50123;BME280;36021;48.670;6.184;2022-12-18T09:51:30;100132.03;;;-4.48;100.00
50123;BME280;36021;48.670;6.184;2022-12-18T09:54:03;100129.69;;;-4.43;100.00
50123;BME280;36021;48.670;6.184;2022-12-18T09:56:35;100128.84;;;-4.51;100.00
50123;BME280;36021;48.670;6.184;2022-12-18T09:59:04;100127.84;;;-4.66;100.00
50123;BME280;36021;48.670;6.184;2022-12-18T10:01:31;100131.53;;;-4.51;100.00
50123;BME280;36021;48.670;6.184;2022-12-18T10:03:58;100125.63;;;-4.47;100.00
50123;BME280;36021;48.670;6.184;2022-12-18T10:15:10;100116.25;;;-4.59;100.00
50123;BME280;36021;48.670;6.184;2022-12-18T10:18:34;100112.50;;;-4.34;100.00
50123;BME280;36021;48.670;6.184;2022-12-18T10:20:42;100102.13;;;-4.53;100.00
50123;BME280;36021;48.670;6.184;2022-12-18T10:23:33;100111.31;;;-4.31;100.00
50123;BME280;36021;48.670;6.184;2022-12-18T10:26:09;100104.22;;;-4.16;100.00
50123;BME280;36021;48.670;6.184;2022-12-18T10:28:37;100104.34;;;-4.09;100.00
50123;BME280;36021;48.670;6.184;2022-12-18T10:31:36;100107.97;;;-4.41;100.00
50123;BME280;36021;48.670;6.184;2022-12-18T10:34:02;100112.03;;;-4.53;100.00
50123;BME280;36021;48.670;6.184;2022-12-18T10:36:28;100113.50;;;-4.27;100.00
50123;BME280;36021;48.670;6.184;2022-12-18T10:39:14;100112.63;;;-4.19;100.00
50123;BME280;36021;48.670;6.184;2022-12-18T10:41:40;100098.63;;;-4.14;100.00
50123;BME280;36021;48.670;6.184;2022-12-18T10:44:16;100088.06;;;-4.16;100.00
50123;BME280;36021;48.670;6.184;2022-12-18T10:46:45;100092.69;;;-4.02;100.00
50123;BME280;36021;48.670;6.184;2022-12-18T10:49:29;100074.69;;;-4.01;100.00
50123;BME280;36021;48.670;6.184;2022-12-18T10:52:18;100074.59;;;-3.85;100.00
50123;BME280;36021;48.670;6.184;2022-12-18T10:55:15;100073.28;;;-3.89;100.00
50123;BME280;36021;48.670;6.184;2022-12-18T10:57:41;100068.56;;;-3.87;100.00
50123;BME280;36021;48.670;6.184;2022-12-18T11:00:21;100071.63;;;-3.90;100.00
50123;BME280;36021;48.670;6.184;2022-12-18T11:02:49;100075.97;;;-3.89;100.00
50123;BME280;36021;48.670;6.184;2022-12-18T11:07:52;100061.72;;;-4.37;100.00
50123;BME280;36021;48.670;6.184;2022-12-18T11:10:39;100061.50;;;-4.74;100.00
50123;BME280;36021;48.670;6.184;2022-12-18T11:13:17;100062.72;;;-4.85;100.00
50123;BME280;36021;48.670;6.184;2022-12-18T11:15:45;100056.47;;;-4.77;100.00
50123;BME280;36021;48.670;6.184;2022-12-18T11:18:29;100052.38;;;-4.49;100.00
50123;BME280;36021;48.670;6.184;2022-12-18T11:21:05;100060.53;;;-4.81;100.00
50123;BME280;36021;48.670;6.184;2022-12-18T11:23:35;100055.28;;;-4.66;100.00
50123;BME280;36021;48.670;6.184;2022-12-18T11:26:03;100052.38;;;-4.49;100.00
50123;BME280;36021;48.670;6.184;2022-12-18T11:28:46;100043.97;;;-4.46;100.00
50123;BME280;36021;48.670;6.184;2022-12-18T11:31:17;100051.22;;;-4.62;100.00
50123;BME280;36021;48.670;6.184;2022-12-18T11:33:54;100048.25;;;-4.76;100.00
50123;BME280;36021;48.670;6.184;2022-12-18T11:36:21;100043.97;;;-4.54;100.00
50123;BME280;36021;48.670;6.184;2022-12-18T11:38:48;100053.47;;;-4.82;100.00
50123;BME280;36021;48.670;6.184;2022-12-18T11:43:58;100046.41;;;-4.75;100.00
50123;BME280;36021;48.670;6.184;2022-12-18T11:46:33;100041.09;;;-5.23;100.00
50123;BME280;36021;48.670;6.184;2022-12-18T11:51:43;100048.94;;;-4.90;100.00
50123;BME280;36021;48.670;6.184;2022-12-18T11:54:14;100052.06;;;-4.62;100.00
50123;BME280;36021;48.670;6.184;2022-12-18T11:56:55;100039.97;;;-4.19;100.00
50123;BME280;36021;48.670;6.184;2022-12-18T12:01:57;100044.03;;;-3.92;100.00
50123;BME280;36021;48.670;6.184;2022-12-18T12:10:00;100031.53;;;-3.85;100.00
50123;BME280;36021;48.670;6.184;2022-12-18T12:12:39;100030.78;;;-3.71;100.00
50123;BME280;36021;48.670;6.184;2022-12-18T12:15:19;100017.00;;;-3.76;100.00
50123;BME280;36021;48.670;6.184;2022-12-18T12:20:30;100015.94;;;-3.67;100.00
50123;BME280;36021;48.670;6.184;2022-12-18T12:23:14;100009.84;;;-3.61;100.00
50123;BME280;36021;48.670;6.184;2022-12-18T12:25:49;100008.50;;;-3.65;100.00
50123;BME280;36021;48.670;6.184;2022-12-18T12:39:27;100003.22;;;-4.04;100.00
50123;BME280;36021;48.670;6.184;2022-12-18T12:41:55;100001.66;;;-3.98;100.00
50123;BME280;36021;48.670;6.184;2022-12-18T12:44:45;99993.44;;;-4.28;100.00
50123;BME280;36021;48.670;6.184;2022-12-18T12:47:20;99997.72;;;-4.10;100.00
50123;BME280;36021;48.670;6.184;2022-12-18T12:49:49;99995.16;;;-3.81;100.00
50123;BME280;36021;48.670;6.184;2022-12-18T12:52:45;99992.94;;;-3.55;100.00
50123;BME280;36021;48.670;6.184;2022-12-18T12:55:17;99991.22;;;-3.48;100.00
50123;BME280;36021;48.670;6.184;2022-12-18T12:58:07;99981.31;;;-3.33;100.00
50123;BME280;36021;48.670;6.184;2022-12-18T13:00:56;99986.44;;;-3.23;100.00
50123;BME280;36021;48.670;6.184;2022-12-18T13:03:41;99989.00;;;-3.44;100.00
50123;BME280;36021;48.670;6.184;2022-12-18T13:06:18;99975.56;;;-3.30;100.00
50123;BME280;36021;48.670;6.184;2022-12-18T13:08:57;99975.03;;;-3.10;100.00
50123;BME280;36021;48.670;6.184;2022-12-18T13:11:32;99968.28;;;-2.92;100.00
50123;BME280;36021;48.670;6.184;2022-12-18T13:14:31;99962.97;;;-2.85;100.00
50123;BME280;36021;48.670;6.184;2022-12-18T13:20:08;99960.34;;;-2.64;100.00
50123;BME280;36021;48.670;6.184;2022-12-18T13:41:04;99954.94;;;-1.78;100.00
50123;BME280;36021;48.670;6.184;2022-12-18T13:43:48;99942.53;;;-1.93;100.00
50123;BME280;36021;48.670;6.184;2022-12-18T13:46:23;99953.34;;;-1.93;100.00
50123;BME280;36021;48.670;6.184;2022-12-18T13:51:43;99954.41;;;-2.09;100.00
50123;BME280;36021;48.670;6.184;2022-12-18T13:54:19;99945.38;;;-2.67;100.00
50123;BME280;36021;48.670;6.184;2022-12-18T13:56:47;99940.88;;;-2.45;100.00
50123;BME280;36021;48.670;6.184;2022-12-18T13:59:18;99939.25;;;-2.46;100.00
50123;BME280;36021;48.670;6.184;2022-12-18T14:01:47;99941.56;;;-2.43;100.00
50123;BME280;36021;48.670;6.184;2022-12-18T14:04:25;99942.09;;;-2.33;100.00
50123;BME280;36021;48.670;6.184;2022-12-18T14:06:55;99940.41;;;-2.34;100.00
50123;BME280;36021;48.670;6.184;2022-12-18T14:09:28;99940.03;;;-2.31;100.00
50123;BME280;36021;48.670;6.184;2022-12-18T14:11:55;99941.78;;;-2.23;100.00
50123;BME280;36021;48.670;6.184;2022-12-18T14:14:42;99939.19;;;-2.31;100.00
50123;BME280;36021;48.670;6.184;2022-12-18T14:17:11;99940.03;;;-2.31;100.00
50123;BME280;36021;48.670;6.184;2022-12-18T14:19:41;99935.28;;;-2.29;100.00
50123;BME280;36021;48.670;6.184;2022-12-18T14:22:20;99936.63;;;-2.39;100.00
50123;BME280;36021;48.670;6.184;2022-12-18T14:24:47;99934.47;;;-2.44;100.00
50123;BME280;36021;48.670;6.184;2022-12-18T14:27:29;99945.28;;;-2.44;100.00
50123;BME280;36021;48.670;6.184;2022-12-18T14:29:55;99943.78;;;-2.46;100.00
50123;BME280;36021;48.670;6.184;2022-12-18T14:32:20;99947.34;;;-2.46;100.00
50123;BME280;36021;48.670;6.184;2022-12-18T14:34:51;99949.81;;;-2.44;100.00
50123;BME280;36021;48.670;6.184;2022-12-18T14:37:26;99948.06;;;-2.52;100.00
50123;BME280;36021;48.670;6.184;2022-12-18T14:40:03;99955.44;;;-2.46;100.00